createdAt,value
2023-02-19T00:01:46.902Z,1.91
2023-02-19T00:04:19.712Z,1.89
2023-02-19T00:06:47.621Z,1.87
2023-02-19T00:09:16.384Z,1.89
2023-02-19T00:11:43.891Z,1.93
2023-02-19T00:14:14.657Z,1.92
2023-02-19T00:16:42.261Z,1.95
2023-02-19T00:19:14.285Z,1.94
2023-02-19T00:21:41.571Z,1.97
2023-02-19T00:24:16.756Z,1.97
2023-02-19T00:26:45.089Z,1.98
2023-02-19T00:29:17.786Z,1.96
2023-02-19T00:31:46.401Z,2.01
2023-02-19T00:34:14.465Z,1.99
2023-02-19T00:36:42.676Z,2.03
2023-02-19T00:39:12.308Z,2.02
2023-02-19T00:41:39.431Z,2.02
2023-02-19T00:44:08.726Z,2.05
2023-02-19T00:46:39.290Z,2.07
2023-02-19T00:49:07.902Z,2.11
2023-02-19T00:51:38.365Z,2.15
2023-02-19T00:54:06.598Z,2.12
2023-02-19T00:56:34.382Z,2.19
2023-02-19T00:59:01.757Z,2.15
2023-02-19T01:01:29.019Z,2.20
2023-02-19T01:03:56.545Z,2.25
2023-02-19T01:06:23.746Z,2.27
2023-02-19T01:08:51.038Z,2.22
2023-02-19T01:11:20.556Z,2.27
2023-02-19T01:13:47.971Z,2.27
2023-02-19T01:16:24.852Z,2.28
2023-02-19T01:18:52.643Z,2.33
2023-02-19T01:21:22.284Z,2.32
2023-02-19T01:23:51.220Z,2.29
2023-02-19T01:26:22.395Z,2.30
2023-02-19T01:28:49.780Z,2.34
2023-02-19T01:31:22.028Z,2.32
2023-02-19T01:33:54.803Z,2.30
2023-02-19T01:36:22.126Z,2.33
2023-02-19T01:38:49.872Z,2.33
2023-02-19T01:41:21.262Z,2.32
2023-02-19T01:44:07.803Z,2.38
2023-02-19T01:46:40.195Z,2.42
2023-02-19T01:49:23.607Z,2.40
2023-02-19T01:51:53.353Z,2.41
2023-02-19T01:54:23.322Z,2.34
2023-02-19T01:56:50.558Z,2.33
2023-02-19T01:59:18.570Z,2.34
2023-02-19T02:01:45.728Z,2.35
2023-02-19T02:04:14.193Z,2.30
2023-02-19T02:06:48.970Z,2.34
2023-02-19T02:09:35.873Z,2.35
2023-02-19T02:12:03.342Z,2.31
2023-02-19T02:14:34.757Z,2.32
2023-02-19T02:17:04.984Z,2.34
2023-02-19T02:20:02.362Z,2.35
2023-02-19T02:22:35.287Z,2.34
2023-02-19T02:25:46.615Z,2.33
2023-02-19T02:28:21.173Z,2.36
2023-02-19T02:30:51.800Z,2.28
2023-02-19T02:33:30.660Z,2.35
2023-02-19T02:36:05.912Z,2.33
2023-02-19T02:38:36.836Z,2.30
2023-02-19T02:41:04.999Z,2.33
2023-02-19T02:43:32.651Z,2.33
2023-02-19T02:45:59.966Z,2.28
2023-02-19T02:48:47.373Z,2.32
2023-02-19T02:51:38.852Z,2.29
2023-02-19T02:54:30.968Z,2.24
2023-02-19T02:57:01.336Z,2.16
2023-02-19T02:59:34.793Z,2.24
2023-02-19T03:02:20.033Z,2.19
2023-02-19T03:05:28.167Z,2.23
2023-02-19T03:08:11.694Z,2.16
2023-02-19T03:10:50.884Z,2.14
2023-02-19T03:13:56.543Z,2.07
2023-02-19T03:16:46.267Z,1.99
2023-02-19T03:19:22.071Z,1.88
2023-02-19T03:22:03.398Z,1.85
2023-02-19T03:24:52.595Z,1.82
2023-02-19T03:27:21.141Z,1.77
2023-02-19T03:29:55.342Z,1.68
2023-02-19T03:32:27.683Z,1.63
2023-02-19T03:35:26.147Z,1.56
2023-02-19T03:38:05.600Z,1.57
2023-02-19T03:40:55.944Z,1.51
2023-02-19T03:43:36.046Z,1.50
2023-02-19T03:46:06.178Z,1.45
2023-02-19T03:48:40.450Z,1.42
2023-02-19T03:52:07.368Z,1.38
2023-02-19T03:54:39.724Z,1.36
2023-02-19T03:57:15.090Z,1.27
2023-02-19T04:00:04.926Z,1.16
2023-02-19T04:02:42.124Z,1.16
2023-02-19T04:05:15.050Z,1.11
2023-02-19T04:07:45.855Z,1.10
2023-02-19T04:10:16.276Z,1.05
2023-02-19T04:12:50.222Z,1.05
2023-02-19T04:15:21.892Z,1.00
2023-02-19T04:17:59.054Z,1.02
2023-02-19T04:20:28.455Z,1.03
2023-02-19T04:22:56.355Z,1.03
2023-02-19T04:25:24.229Z,1.00
2023-02-19T04:27:51.831Z,0.96
2023-02-19T04:30:19.003Z,1.00
2023-02-19T04:32:46.223Z,0.96
2023-02-19T04:35:13.386Z,0.93
2023-02-19T04:37:40.557Z,0.89
2023-02-19T04:40:08.301Z,0.87
2023-02-19T04:42:35.617Z,0.90
2023-02-19T04:45:02.781Z,0.88
2023-02-19T04:47:32.023Z,0.86
2023-02-19T04:49:59.086Z,0.84
2023-02-19T04:52:26.457Z,0.83
2023-02-19T04:54:53.476Z,0.83
2023-02-19T04:57:20.818Z,0.83
2023-02-19T04:59:47.872Z,0.83
2023-02-19T05:02:15.245Z,0.82
2023-02-19T05:04:42.286Z,0.83
2023-02-19T05:07:09.616Z,0.82
2023-02-19T05:09:36.730Z,0.77
2023-02-19T05:12:03.988Z,0.77
2023-02-19T05:14:31.072Z,0.76
2023-02-19T05:16:58.724Z,0.73
2023-02-19T05:19:25.773Z,0.70
2023-02-19T05:21:53.068Z,0.72
2023-02-19T05:24:20.308Z,0.72
2023-02-19T05:26:48.318Z,0.77
2023-02-19T05:29:15.476Z,0.75
2023-02-19T05:31:42.901Z,0.77
2023-02-19T05:34:10.093Z,0.79
2023-02-19T05:36:37.410Z,0.82
2023-02-19T05:39:06.323Z,0.81
2023-02-19T05:41:33.969Z,0.85
2023-02-19T05:44:01.058Z,0.91
2023-02-19T05:46:30.094Z,0.92
2023-02-19T05:48:58.456Z,0.94
2023-02-19T05:51:27.144Z,1.02
2023-02-19T05:53:54.978Z,1.03
2023-02-19T05:56:28.497Z,1.07
2023-02-19T05:58:55.760Z,1.04
2023-02-19T06:01:25.374Z,1.08
2023-02-19T06:03:54.082Z,1.09
2023-02-19T06:06:23.547Z,1.15
2023-02-19T06:08:50.981Z,1.12
2023-02-19T06:11:18.737Z,1.11
2023-02-19T06:13:46.053Z,1.18
2023-02-19T06:16:13.440Z,1.14
2023-02-19T06:18:41.288Z,1.20
2023-02-19T06:21:11.604Z,1.17
2023-02-19T06:23:39.810Z,1.18
2023-02-19T06:26:22.317Z,1.20
2023-02-19T06:28:50.780Z,1.18
2023-02-19T06:31:19.070Z,1.20
2023-02-19T06:33:46.244Z,1.23
2023-02-19T06:36:16.339Z,1.28
2023-02-19T06:38:44.154Z,1.33
2023-02-19T06:41:13.062Z,1.40
2023-02-19T06:43:40.700Z,1.41
2023-02-19T06:46:08.596Z,1.44
2023-02-19T06:48:36.075Z,1.46
2023-02-19T06:51:03.499Z,1.51
2023-02-19T06:53:30.843Z,1.50
2023-02-19T06:55:59.313Z,1.51
2023-02-19T06:58:27.024Z,1.52
2023-02-19T07:00:54.454Z,1.51
2023-02-19T07:03:22.037Z,1.53
2023-02-19T07:05:49.689Z,1.51
2023-02-19T07:08:19.622Z,1.57
2023-02-19T07:10:55.498Z,1.61
2023-02-19T07:13:23.527Z,1.61
2023-02-19T07:15:52.227Z,1.53
2023-02-19T07:18:19.463Z,1.53
2023-02-19T07:20:46.880Z,1.58
2023-02-19T07:23:13.984Z,1.62
2023-02-19T07:25:41.399Z,1.63
2023-02-19T07:28:08.530Z,1.63
2023-02-19T07:30:35.969Z,1.60
2023-02-19T07:33:03.321Z,1.64
2023-02-19T07:35:30.684Z,1.70
2023-02-19T07:37:57.860Z,1.72
2023-02-19T07:40:25.159Z,1.65
2023-02-19T07:42:52.325Z,1.75
2023-02-19T07:45:19.576Z,1.77
2023-02-19T07:47:46.730Z,1.77
2023-02-19T07:50:14.227Z,1.83
2023-02-19T07:52:41.486Z,1.85
2023-02-19T07:55:08.938Z,1.92
2023-02-19T07:57:36.044Z,1.99
2023-02-19T08:00:04.160Z,1.97
2023-02-19T08:02:58.033Z,1.96
2023-02-19T08:05:25.986Z,1.97
2023-02-19T08:07:53.117Z,1.94
2023-02-19T08:10:39.458Z,2.00
2023-02-19T08:13:24.891Z,2.02
2023-02-19T08:15:55.133Z,2.03
2023-02-19T08:18:25.744Z,2.01
2023-02-19T08:20:54.333Z,1.99
2023-02-19T08:23:21.815Z,2.02
2023-02-19T08:25:51.306Z,2.06
2023-02-19T08:28:19.456Z,2.07
2023-02-19T08:30:47.777Z,2.06
2023-02-19T08:33:17.270Z,1.97
2023-02-19T08:35:44.885Z,2.08
2023-02-19T08:38:13.452Z,2.05
2023-02-19T08:40:41.196Z,2.09
2023-02-19T08:43:10.778Z,2.10
2023-02-19T08:45:39.758Z,2.08
2023-02-19T08:48:07.594Z,2.03
2023-02-19T08:50:35.328Z,2.08
2023-02-19T08:53:03.452Z,2.02
2023-02-19T08:55:30.735Z,2.11
2023-02-19T08:57:58.024Z,2.15
2023-02-19T09:00:25.781Z,2.22
2023-02-19T09:02:52.866Z,2.24
2023-02-19T09:05:20.396Z,2.18
2023-02-19T09:07:47.496Z,2.22
2023-02-19T09:10:15.004Z,2.31
2023-02-19T09:12:42.154Z,2.30
2023-02-19T09:15:09.875Z,2.36
2023-02-19T09:17:37.098Z,2.43
2023-02-19T09:20:04.710Z,2.46
2023-02-19T09:22:31.789Z,2.52
2023-02-19T09:24:59.093Z,2.57
2023-02-19T09:27:26.253Z,2.61
2023-02-19T09:29:54.811Z,2.59
2023-02-19T09:32:22.215Z,2.65
2023-02-19T09:34:49.816Z,2.64
2023-02-19T09:37:16.931Z,2.73
2023-02-19T09:39:44.298Z,2.77
2023-02-19T09:42:18.339Z,2.84
2023-02-19T09:44:48.486Z,3.01
2023-02-19T09:47:22.036Z,3.27
2023-02-19T09:49:53.063Z,3.52
2023-02-19T09:52:25.630Z,3.52
2023-02-19T09:54:57.895Z,3.39
2023-02-19T09:57:26.528Z,3.38
2023-02-19T10:00:00.437Z,3.42
2023-02-19T10:02:30.252Z,3.47
2023-02-19T10:04:58.767Z,3.49
2023-02-19T10:07:47.326Z,3.55
2023-02-19T10:10:14.709Z,3.31
2023-02-19T10:12:46.942Z,3.27
2023-02-19T10:15:22.326Z,3.24
2023-02-19T10:17:49.462Z,3.20
2023-02-19T10:20:26.680Z,3.19
2023-02-19T10:23:08.641Z,3.24
2023-02-19T10:25:36.770Z,3.29
2023-02-19T10:28:04.728Z,3.36
2023-02-19T10:30:35.057Z,3.38
2023-02-19T10:33:08.879Z,3.41
2023-02-19T10:35:38.293Z,3.48
2023-02-19T10:38:06.791Z,3.44
2023-02-19T10:40:34.251Z,3.46
2023-02-19T10:43:04.261Z,3.48
2023-02-19T10:45:35.483Z,3.56
2023-02-19T10:48:03.276Z,3.64
2023-02-19T10:50:44.556Z,3.49
2023-02-19T10:53:23.145Z,3.57
2023-02-19T10:56:07.319Z,3.67
2023-02-19T10:58:34.642Z,3.59
2023-02-19T11:01:22.843Z,3.73
2023-02-19T11:04:13.912Z,3.74
2023-02-19T11:06:41.372Z,3.78
2023-02-19T11:09:24.342Z,3.69
2023-02-19T11:11:52.572Z,3.66
2023-02-19T11:14:23.920Z,3.74
2023-02-19T11:16:56.607Z,3.85
2023-02-19T11:19:32.718Z,3.76
2023-02-19T11:22:01.046Z,3.78
2023-02-19T11:24:37.566Z,3.77
2023-02-19T11:27:07.631Z,3.84
2023-02-19T11:29:35.504Z,3.75
2023-02-19T11:32:26.313Z,3.76
2023-02-19T11:35:23.766Z,3.68
2023-02-19T11:37:58.692Z,3.70
2023-02-19T11:40:53.562Z,3.77
2023-02-19T11:43:58.151Z,3.88
2023-02-19T11:46:34.102Z,3.85
2023-02-19T11:49:39.321Z,3.87
2023-02-19T11:52:44.271Z,3.85
2023-02-19T11:55:25.855Z,3.83
2023-02-19T11:58:01.881Z,3.87
2023-02-19T12:00:36.109Z,3.97
2023-02-19T12:03:12.232Z,4.06
2023-02-19T12:05:42.630Z,4.04
2023-02-19T12:08:15.108Z,3.94
2023-02-19T12:11:20.169Z,3.82
2023-02-19T12:14:06.309Z,3.74
2023-02-19T12:16:46.941Z,3.65
2023-02-19T12:19:24.261Z,3.64
2023-02-19T12:22:16.703Z,3.64
2023-02-19T12:24:50.968Z,3.54
2023-02-19T12:27:43.153Z,3.60
2023-02-19T12:30:48.441Z,3.61
2023-02-19T12:33:29.596Z,3.61
2023-02-19T12:36:13.808Z,3.73
2023-02-19T12:38:55.052Z,3.92
2023-02-19T12:41:26.927Z,4.01
2023-02-19T12:44:02.656Z,4.18
2023-02-19T12:46:33.728Z,4.23
2023-02-19T12:49:07.476Z,4.24
2023-02-19T12:51:55.318Z,4.24
2023-02-19T12:54:28.454Z,4.36
2023-02-19T12:57:01.602Z,4.38
2023-02-19T12:59:37.298Z,4.46
2023-02-19T13:02:18.810Z,4.41
2023-02-19T13:05:12.046Z,4.52
2023-02-19T13:08:12.086Z,4.46
2023-02-19T13:10:44.698Z,4.42
2023-02-19T13:13:32.342Z,4.40
2023-02-19T13:16:03.275Z,4.43
2023-02-19T13:18:37.409Z,4.59
2023-02-19T13:21:06.383Z,4.66
2023-02-19T13:23:54.016Z,4.63
2023-02-19T13:26:42.958Z,4.69
2023-02-19T13:29:47.675Z,4.58
2023-02-19T13:32:21.203Z,4.44
2023-02-19T13:35:11.606Z,4.44
2023-02-19T13:37:39.267Z,4.43
2023-02-19T13:40:19.959Z,4.45
2023-02-19T13:42:59.173Z,4.47
2023-02-19T13:45:39.926Z,4.34
2023-02-19T13:48:26.170Z,4.31
2023-02-19T13:51:17.108Z,4.29
2023-02-19T13:53:50.465Z,4.32
2023-02-19T13:56:36.220Z,4.24
2023-02-19T13:59:23.401Z,4.17
2023-02-19T14:01:53.290Z,4.13
2023-02-19T14:04:25.000Z,4.21
2023-02-19T14:07:11.282Z,4.15
2023-02-19T14:09:41.360Z,4.09
2023-02-19T14:12:15.074Z,4.10
2023-02-19T14:14:51.547Z,4.13
2023-02-19T14:17:33.296Z,3.99
2023-02-19T14:20:02.769Z,4.03
2023-02-19T14:22:52.932Z,4.07
2023-02-19T14:25:29.491Z,4.05
2023-02-19T14:28:15.438Z,4.06
2023-02-19T14:30:45.810Z,4.01
2023-02-19T14:33:18.860Z,4.03
2023-02-19T14:35:48.238Z,4.06
2023-02-19T14:38:32.631Z,3.97
2023-02-19T14:41:00.996Z,4.01
2023-02-19T14:43:28.845Z,4.03
2023-02-19T14:46:02.979Z,4.03
2023-02-19T14:48:49.495Z,3.98
2023-02-19T14:51:31.221Z,4.05
2023-02-19T14:53:59.259Z,3.99
2023-02-19T14:56:29.323Z,4.02
2023-02-19T14:59:29.788Z,3.93
2023-02-19T15:02:03.578Z,3.96
2023-02-19T15:04:35.927Z,3.99
2023-02-19T15:07:06.832Z,3.99
2023-02-19T15:09:37.569Z,4.04
2023-02-19T15:12:05.646Z,4.02
2023-02-19T15:14:33.591Z,3.93
2023-02-19T15:17:04.323Z,3.91
2023-02-19T15:19:35.106Z,3.80
2023-02-19T15:22:02.681Z,3.61
2023-02-19T15:24:30.277Z,3.48
2023-02-19T15:26:57.838Z,3.41
2023-02-19T15:29:27.173Z,3.25
2023-02-19T15:31:57.611Z,3.21
2023-02-19T15:34:26.868Z,3.25
2023-02-19T15:36:59.773Z,3.27
2023-02-19T15:39:36.199Z,3.27
2023-02-19T15:42:06.082Z,3.29
2023-02-19T15:45:02.555Z,3.26
2023-02-19T15:47:59.322Z,3.28
2023-02-19T15:50:35.150Z,3.31
2023-02-19T15:53:13.110Z,3.25
2023-02-19T15:55:46.013Z,3.24
2023-02-19T15:58:21.535Z,3.23
2023-02-19T16:00:53.370Z,3.21
2023-02-19T16:03:22.910Z,3.21
2023-02-19T16:06:19.617Z,3.18
2023-02-19T16:09:04.585Z,3.13
2023-02-19T16:11:54.983Z,3.15
2023-02-19T16:14:31.685Z,3.06
2023-02-19T16:17:12.979Z,3.07
2023-02-19T16:19:46.923Z,2.94
2023-02-19T16:22:19.863Z,2.98
2023-02-19T16:24:50.750Z,3.00
2023-02-19T16:27:39.103Z,2.97
2023-02-19T16:30:10.076Z,3.05
2023-02-19T16:32:37.287Z,2.98
2023-02-19T16:35:06.291Z,2.97
2023-02-19T16:38:01.687Z,2.97
2023-02-19T16:40:35.372Z,3.00
2023-02-19T16:43:05.426Z,2.92
2023-02-19T16:45:32.877Z,2.98
2023-02-19T16:48:00.718Z,2.98
2023-02-19T16:50:28.312Z,3.02
2023-02-19T16:52:57.688Z,3.00
2023-02-19T16:55:25.894Z,3.04
2023-02-19T16:57:53.396Z,3.01
2023-02-19T17:00:27.968Z,3.05
2023-02-19T17:02:58.784Z,3.03
2023-02-19T17:05:28.992Z,3.00
2023-02-19T17:08:04.105Z,3.03
2023-02-19T17:10:42.950Z,3.01
2023-02-19T17:13:15.424Z,2.91
2023-02-19T17:15:43.028Z,2.89
2023-02-19T17:18:11.907Z,2.86
2023-02-19T17:20:40.899Z,2.87
2023-02-19T17:23:08.917Z,2.76
2023-02-19T17:25:36.422Z,2.80
2023-02-19T17:28:03.605Z,2.74
2023-02-19T17:30:33.983Z,2.77
2023-02-19T17:33:01.707Z,2.77
2023-02-19T17:35:29.592Z,2.71
2023-02-19T17:37:57.058Z,2.73
2023-02-19T17:40:33.273Z,2.70
2023-02-19T17:43:01.904Z,2.72
2023-02-19T17:45:29.903Z,2.63
2023-02-19T17:47:57.312Z,2.59
2023-02-19T17:50:29.152Z,2.61
2023-02-19T17:52:56.448Z,2.55
2023-02-19T17:55:24.108Z,2.54
2023-02-19T17:57:52.302Z,2.55
2023-02-19T18:00:26.922Z,2.49
2023-02-19T18:02:54.700Z,2.52
2023-02-19T18:05:22.741Z,2.44
2023-02-19T18:07:50.611Z,2.47
2023-02-19T18:10:20.726Z,2.40
2023-02-19T18:12:47.977Z,2.36
2023-02-19T18:15:17.671Z,2.37
2023-02-19T18:17:45.015Z,2.24
2023-02-19T18:20:17.469Z,2.19
2023-02-19T18:22:44.944Z,2.22
2023-02-19T18:25:13.746Z,2.17
2023-02-19T18:27:41.197Z,2.16
2023-02-19T18:30:09.932Z,2.11
2023-02-19T18:32:37.420Z,2.04
2023-02-19T18:35:06.373Z,2.05
2023-02-19T18:37:34.072Z,2.01
2023-02-19T18:40:02.431Z,1.98
2023-02-19T18:42:30.336Z,1.94
2023-02-19T18:44:58.238Z,1.92
2023-02-19T18:47:26.637Z,1.86
2023-02-19T18:49:56.106Z,1.87
2023-02-19T18:52:25.680Z,1.74
2023-02-19T18:54:55.208Z,1.76
2023-02-19T18:57:25.170Z,1.73
2023-02-19T18:59:53.322Z,1.77
2023-02-19T19:02:20.923Z,1.72
2023-02-19T19:04:51.627Z,1.66
2023-02-19T19:07:20.449Z,1.52
2023-02-19T19:09:48.537Z,1.46
2023-02-19T19:12:16.273Z,1.43
2023-02-19T19:14:44.895Z,1.44
2023-02-19T19:17:25.077Z,1.40
2023-02-19T19:19:52.974Z,1.38
2023-02-19T19:22:22.830Z,1.37
2023-02-19T19:24:50.255Z,1.35
2023-02-19T19:27:20.251Z,1.38
2023-02-19T19:29:49.693Z,1.40
2023-02-19T19:32:17.172Z,1.35
2023-02-19T19:34:45.112Z,1.25
2023-02-19T19:37:12.845Z,1.20
2023-02-19T19:39:40.421Z,1.24
2023-02-19T19:42:09.397Z,1.22
2023-02-19T19:44:37.600Z,1.20
2023-02-19T19:47:05.099Z,1.17
2023-02-19T19:49:33.432Z,1.19
2023-02-19T19:52:01.421Z,1.15
2023-02-19T19:54:29.403Z,1.06
2023-02-19T19:56:56.766Z,1.06
2023-02-19T19:59:24.288Z,1.06
2023-02-19T20:01:57.298Z,1.07
2023-02-19T20:04:25.922Z,1.02
2023-02-19T20:06:54.449Z,1.01
2023-02-19T20:09:25.688Z,1.01
2023-02-19T20:11:53.849Z,0.98
2023-02-19T20:14:22.991Z,0.92
2023-02-19T20:16:50.737Z,0.87
2023-02-19T20:19:19.475Z,0.88
2023-02-19T20:21:52.975Z,0.86
2023-02-19T20:24:26.178Z,0.81
2023-02-19T20:26:54.155Z,0.78
2023-02-19T20:29:21.534Z,0.69
2023-02-19T20:31:50.131Z,0.71
2023-02-19T20:34:18.326Z,0.68
2023-02-19T20:36:47.571Z,0.69
2023-02-19T20:39:16.347Z,0.62
2023-02-19T20:41:47.804Z,0.69
2023-02-19T20:44:15.845Z,0.66
2023-02-19T20:46:45.150Z,0.66
2023-02-19T20:49:13.330Z,0.56
2023-02-19T20:51:45.533Z,0.54
2023-02-19T20:54:13.254Z,0.51
2023-02-19T20:56:48.524Z,0.46
2023-02-19T20:59:16.721Z,0.46
2023-02-19T21:01:44.032Z,0.44
2023-02-19T21:04:11.874Z,0.41
2023-02-19T21:06:39.718Z,0.39
2023-02-19T21:09:07.448Z,0.30
2023-02-19T21:11:34.884Z,0.40
2023-02-19T21:14:02.335Z,0.36
2023-02-19T21:16:31.165Z,0.32
2023-02-19T21:19:00.125Z,0.36
2023-02-19T21:21:27.445Z,0.32
2023-02-19T21:23:57.206Z,0.35
2023-02-19T21:26:25.399Z,0.32
2023-02-19T21:28:53.505Z,0.29
2023-02-19T21:31:22.424Z,0.30
2023-02-19T21:33:50.798Z,0.25
2023-02-19T21:36:18.687Z,0.18
2023-02-19T21:38:46.596Z,0.23
2023-02-19T21:41:13.813Z,0.20
2023-02-19T21:43:41.191Z,0.27
2023-02-19T21:46:08.329Z,0.19
2023-02-19T21:48:35.631Z,0.25
2023-02-19T21:51:03.994Z,0.24
2023-02-19T21:53:31.665Z,0.25
2023-02-19T21:55:59.174Z,0.22
2023-02-19T21:58:26.684Z,0.18
2023-02-19T22:00:54.235Z,0.18
2023-02-19T22:03:21.857Z,0.18
2023-02-19T22:05:49.012Z,0.14
2023-02-19T22:08:17.535Z,0.07
2023-02-19T22:10:44.852Z,0.15
2023-02-19T22:13:12.249Z,0.18
2023-02-19T22:15:39.875Z,0.24
2023-02-19T22:18:07.326Z,0.19
2023-02-19T22:20:34.862Z,0.17
2023-02-19T22:23:02.374Z,0.17
2023-02-19T22:25:29.524Z,0.21
2023-02-19T22:27:58.415Z,0.18
2023-02-19T22:30:26.852Z,0.16
2023-02-19T22:32:54.536Z,0.19
2023-02-19T22:35:21.949Z,0.23
2023-02-19T22:37:49.345Z,0.25
2023-02-19T22:40:16.684Z,0.21
2023-02-19T22:42:44.077Z,0.26
2023-02-19T22:45:12.634Z,0.27
2023-02-19T22:47:40.173Z,0.22
2023-02-19T22:50:08.250Z,0.30
2023-02-19T22:52:35.743Z,0.32
2023-02-19T22:55:03.837Z,0.37
2023-02-19T22:57:31.253Z,0.43
2023-02-19T22:59:58.495Z,0.49
2023-02-19T23:02:25.900Z,0.43
2023-02-19T23:04:53.107Z,0.50
2023-02-19T23:07:20.618Z,0.50
2023-02-19T23:09:47.701Z,0.51
2023-02-19T23:12:15.143Z,0.53
2023-02-19T23:14:42.169Z,0.56
2023-02-19T23:17:09.706Z,0.56
2023-02-19T23:19:38.011Z,0.65
2023-02-19T23:22:05.949Z,0.63
2023-02-19T23:24:33.091Z,0.69
2023-02-19T23:27:00.692Z,0.68
2023-02-19T23:29:29.776Z,0.75
2023-02-19T23:31:57.351Z,0.71
2023-02-19T23:34:24.527Z,0.65
2023-02-19T23:36:52.629Z,0.68
2023-02-19T23:39:21.474Z,0.64
2023-02-19T23:41:51.606Z,0.55
2023-02-19T23:44:19.617Z,0.58
2023-02-19T23:46:48.264Z,0.62
2023-02-19T23:49:15.383Z,0.66
2023-02-19T23:51:42.816Z,0.69
2023-02-19T23:54:09.853Z,0.64
2023-02-19T23:56:37.402Z,0.63
2023-02-19T23:59:04.707Z,0.68
